sensor_id;sensor_type;location;lat;lon;timestamp;temperature;humidity
4922;DHT22;16625;53.624;10.106;2023-02-23T00:00:23;5.80;99.90
4922;DHT22;16625;53.624;10.106;2023-02-23T00:02:53;5.80;99.90
4922;DHT22;16625;53.624;10.106;2023-02-23T00:05:23;6.20;99.90
4922;DHT22;16625;53.624;10.106;2023-02-23T00:07:50;6.00;99.90
4922;DHT22;16625;53.624;10.106;2023-02-23T00:10:18;6.10;99.90
4922;DHT22;16625;53.624;10.106;2023-02-23T00:12:47;5.70;99.90
4922;DHT22;16625;53.624;10.106;2023-02-23T00:15:15;6.00;99.90
4922;DHT22;16625;53.624;10.106;2023-02-23T00:17:42;5.60;99.90
4922;DHT22;16625;53.624;10.106;2023-02-23T00:20:12;5.70;99.90
4922;DHT22;16625;53.624;10.106;2023-02-23T00:22:41;5.40;99.90
4922;DHT22;16625;53.624;10.106;2023-02-23T00:25:09;5.60;99.90
4922;DHT22;16625;53.624;10.106;2023-02-23T00:27:37;5.60;99.90
4922;DHT22;16625;53.624;10.106;2023-02-23T00:30:13;5.50;99.90
4922;DHT22;16625;53.624;10.106;2023-02-23T00:32:40;5.80;99.90
4922;DHT22;16625;53.624;10.106;2023-02-23T00:35:10;5.50;99.90
4922;DHT22;16625;53.624;10.106;2023-02-23T00:37:42;5.40;99.90
4922;DHT22;16625;53.624;10.106;2023-02-23T00:40:11;5.90;99.90
4922;DHT22;16625;53.624;10.106;2023-02-23T00:42:42;5.40;99.90
4922;DHT22;16625;53.624;10.106;2023-02-23T00:45:11;5.40;99.90
4922;DHT22;16625;53.624;10.106;2023-02-23T00:47:40;5.30;99.90
4922;DHT22;16625;53.624;10.106;2023-02-23T00:50:09;5.60;99.90
4922;DHT22;16625;53.624;10.106;2023-02-23T00:52:40;5.30;99.90
4922;DHT22;16625;53.624;10.106;2023-02-23T00:55:09;5.30;99.90
4922;DHT22;16625;53.624;10.106;2023-02-23T00:57:37;5.30;99.90
4922;DHT22;16625;53.624;10.106;2023-02-23T01:00:06;5.40;99.90
4922;DHT22;16625;53.624;10.106;2023-02-23T01:02:48;5.20;99.90
4922;DHT22;16625;53.624;10.106;2023-02-23T01:05:16;5.70;99.90
4922;DHT22;16625;53.624;10.106;2023-02-23T01:07:46;5.30;99.90
4922;DHT22;16625;53.624;10.106;2023-02-23T01:10:14;5.30;99.90
4922;DHT22;16625;53.624;10.106;2023-02-23T01:12:51;5.60;99.90
4922;DHT22;16625;53.624;10.106;2023-02-23T01:15:20;5.60;99.90
4922;DHT22;16625;53.624;10.106;2023-02-23T01:17:48;5.60;99.90
4922;DHT22;16625;53.624;10.106;2023-02-23T01:20:16;5.30;99.90
4922;DHT22;16625;53.624;10.106;2023-02-23T01:22:47;6.20;99.90
4922;DHT22;16625;53.624;10.106;2023-02-23T01:25:18;5.30;99.90
4922;DHT22;16625;53.624;10.106;2023-02-23T01:27:45;5.30;99.90
4922;DHT22;16625;53.624;10.106;2023-02-23T01:30:14;5.60;99.90
4922;DHT22;16625;53.624;10.106;2023-02-23T01:32:41;5.30;99.90
4922;DHT22;16625;53.624;10.106;2023-02-23T01:35:10;5.60;99.90
4922;DHT22;16625;53.624;10.106;2023-02-23T01:37:40;5.30;99.90
4922;DHT22;16625;53.624;10.106;2023-02-23T01:40:12;6.30;99.90
4922;DHT22;16625;53.624;10.106;2023-02-23T01:42:54;5.30;99.90
4922;DHT22;16625;53.624;10.106;2023-02-23T01:45:26;6.30;99.90
4922;DHT22;16625;53.624;10.106;2023-02-23T01:47:57;5.60;99.90
4922;DHT22;16625;53.624;10.106;2023-02-23T01:50:35;5.50;99.90
4922;DHT22;16625;53.624;10.106;2023-02-23T01:53:04;5.30;99.90
4922;DHT22;16625;53.624;10.106;2023-02-23T01:55:31;5.60;99.90
4922;DHT22;16625;53.624;10.106;2023-02-23T01:58:04;5.60;99.90
4922;DHT22;16625;53.624;10.106;2023-02-23T02:00:33;5.70;99.90
4922;DHT22;16625;53.624;10.106;2023-02-23T02:03:07;5.20;99.90
4922;DHT22;16625;53.624;10.106;2023-02-23T02:05:40;5.70;99.90
4922;DHT22;16625;53.624;10.106;2023-02-23T02:08:09;5.60;99.90
4922;DHT22;16625;53.624;10.106;2023-02-23T02:10:37;6.00;99.90
4922;DHT22;16625;53.624;10.106;2023-02-23T02:13:14;5.30;99.90
4922;DHT22;16625;53.624;10.106;2023-02-23T02:15:58;5.70;99.90
4922;DHT22;16625;53.624;10.106;2023-02-23T02:18:41;5.30;99.90
4922;DHT22;16625;53.624;10.106;2023-02-23T02:21:36;5.70;99.90
4922;DHT22;16625;53.624;10.106;2023-02-23T02:24:29;5.30;99.90
4922;DHT22;16625;53.624;10.106;2023-02-23T02:27:17;5.80;99.90
4922;DHT22;16625;53.624;10.106;2023-02-23T02:30:14;5.30;99.90
4922;DHT22;16625;53.624;10.106;2023-02-23T02:36:14;5.90;99.90
4922;DHT22;16625;53.624;10.106;2023-02-23T02:38:52;5.40;99.90
4922;DHT22;16625;53.624;10.106;2023-02-23T02:41:29;6.00;99.90
4922;DHT22;16625;53.624;10.106;2023-02-23T02:44:07;5.40;99.90
4922;DHT22;16625;53.624;10.106;2023-02-23T02:46:39;5.90;99.90
4922;DHT22;16625;53.624;10.106;2023-02-23T02:49:12;5.40;99.90
4922;DHT22;16625;53.624;10.106;2023-02-23T02:51:45;5.80;99.90
4922;DHT22;16625;53.624;10.106;2023-02-23T02:54:23;5.80;99.90
4922;DHT22;16625;53.624;10.106;2023-02-23T02:56:52;5.50;99.90
4922;DHT22;16625;53.624;10.106;2023-02-23T02:59:23;5.70;99.90
4922;DHT22;16625;53.624;10.106;2023-02-23T03:02:13;5.80;99.90
4922;DHT22;16625;53.624;10.106;2023-02-23T03:04:58;6.40;99.90
4922;DHT22;16625;53.624;10.106;2023-02-23T03:07:52;6.30;99.90
4922;DHT22;16625;53.624;10.106;2023-02-23T03:10:45;6.00;99.90
4922;DHT22;16625;53.624;10.106;2023-02-23T03:13:38;5.90;99.90
4922;DHT22;16625;53.624;10.106;2023-02-23T03:16:45;5.90;99.90
4922;DHT22;16625;53.624;10.106;2023-02-23T03:19:41;5.70;99.90
4922;DHT22;16625;53.624;10.106;2023-02-23T03:22:33;5.70;99.90
4922;DHT22;16625;53.624;10.106;2023-02-23T03:25:26;5.80;99.90
4922;DHT22;16625;53.624;10.106;2023-02-23T03:28:16;6.10;99.90
4922;DHT22;16625;53.624;10.106;2023-02-23T03:31:06;5.70;99.90
4922;DHT22;16625;53.624;10.106;2023-02-23T03:34:02;6.30;99.90
4922;DHT22;16625;53.624;10.106;2023-02-23T03:36:57;6.00;99.90
4922;DHT22;16625;53.624;10.106;2023-02-23T03:39:48;6.30;99.90
4922;DHT22;16625;53.624;10.106;2023-02-23T03:42:36;6.30;99.90
4922;DHT22;16625;53.624;10.106;2023-02-23T03:45:24;6.40;99.90
4922;DHT22;16625;53.624;10.106;2023-02-23T03:48:10;6.10;99.90
4922;DHT22;16625;53.624;10.106;2023-02-23T03:51:00;7.00;99.90
4922;DHT22;16625;53.624;10.106;2023-02-23T03:53:52;6.10;99.90
4922;DHT22;16625;53.624;10.106;2023-02-23T03:56:43;6.20;99.90
4922;DHT22;16625;53.624;10.106;2023-02-23T03:59:31;6.30;99.90
4922;DHT22;16625;53.624;10.106;2023-02-23T04:02:19;7.30;99.90
4922;DHT22;16625;53.624;10.106;2023-02-23T04:05:08;6.50;99.90
4922;DHT22;16625;53.624;10.106;2023-02-23T04:07:54;6.30;99.90
4922;DHT22;16625;53.624;10.106;2023-02-23T04:10:46;7.30;99.90
4922;DHT22;16625;53.624;10.106;2023-02-23T04:13:34;6.30;99.90
4922;DHT22;16625;53.624;10.106;2023-02-23T04:16:04;6.30;99.90
4922;DHT22;16625;53.624;10.106;2023-02-23T04:18:34;6.30;99.90
4922;DHT22;16625;53.624;10.106;2023-02-23T04:21:07;6.30;99.90
4922;DHT22;16625;53.624;10.106;2023-02-23T04:23:37;6.30;99.90
4922;DHT22;16625;53.624;10.106;2023-02-23T04:26:06;6.70;99.90
4922;DHT22;16625;53.624;10.106;2023-02-23T04:28:33;7.40;99.90
4922;DHT22;16625;53.624;10.106;2023-02-23T04:31:00;6.80;99.90
4922;DHT22;16625;53.624;10.106;2023-02-23T04:33:27;6.30;99.90
4922;DHT22;16625;53.624;10.106;2023-02-23T04:35:56;6.10;99.90
4922;DHT22;16625;53.624;10.106;2023-02-23T04:38:25;6.70;99.90
4922;DHT22;16625;53.624;10.106;2023-02-23T04:40:52;7.10;99.90
4922;DHT22;16625;53.624;10.106;2023-02-23T04:43:19;6.50;99.90
4922;DHT22;16625;53.624;10.106;2023-02-23T04:45:47;6.70;99.90
4922;DHT22;16625;53.624;10.106;2023-02-23T04:48:15;6.50;99.90
4922;DHT22;16625;53.624;10.106;2023-02-23T04:50:42;6.50;99.90
4922;DHT22;16625;53.624;10.106;2023-02-23T04:53:11;6.50;99.90
4922;DHT22;16625;53.624;10.106;2023-02-23T04:55:37;6.90;99.90
4922;DHT22;16625;53.624;10.106;2023-02-23T04:58:04;6.90;99.90
4922;DHT22;16625;53.624;10.106;2023-02-23T05:00:34;6.70;99.90
4922;DHT22;16625;53.624;10.106;2023-02-23T05:03:03;6.50;99.90
4922;DHT22;16625;53.624;10.106;2023-02-23T05:05:31;6.90;99.90
4922;DHT22;16625;53.624;10.106;2023-02-23T05:07:58;6.50;99.90
4922;DHT22;16625;53.624;10.106;2023-02-23T05:10:26;6.70;99.90
4922;DHT22;16625;53.624;10.106;2023-02-23T05:12:54;7.00;99.90
4922;DHT22;16625;53.624;10.106;2023-02-23T05:15:23;7.20;99.90
4922;DHT22;16625;53.624;10.106;2023-02-23T05:17:50;6.60;99.90
4922;DHT22;16625;53.624;10.106;2023-02-23T05:20:19;6.30;99.90
4922;DHT22;16625;53.624;10.106;2023-02-23T05:22:46;7.30;99.90
4922;DHT22;16625;53.624;10.106;2023-02-23T05:25:14;6.70;99.90
4922;DHT22;16625;53.624;10.106;2023-02-23T05:27:42;6.60;99.90
4922;DHT22;16625;53.624;10.106;2023-02-23T05:30:10;7.00;99.90
4922;DHT22;16625;53.624;10.106;2023-02-23T05:32:40;6.60;99.90
4922;DHT22;16625;53.624;10.106;2023-02-23T05:35:08;6.60;99.90
4922;DHT22;16625;53.624;10.106;2023-02-23T05:37:35;6.60;99.90
4922;DHT22;16625;53.624;10.106;2023-02-23T05:40:03;6.70;99.90
4922;DHT22;16625;53.624;10.106;2023-02-23T05:42:30;6.60;99.90
4922;DHT22;16625;53.624;10.106;2023-02-23T05:45:00;6.90;99.90
4922;DHT22;16625;53.624;10.106;2023-02-23T05:47:34;8.00;99.90
4922;DHT22;16625;53.624;10.106;2023-02-23T05:50:03;7.00;99.90
4922;DHT22;16625;53.624;10.106;2023-02-23T05:52:31;6.60;99.90
4922;DHT22;16625;53.624;10.106;2023-02-23T05:54:58;6.70;99.90
4922;DHT22;16625;53.624;10.106;2023-02-23T05:57:27;6.70;99.90
4922;DHT22;16625;53.624;10.106;2023-02-23T05:59:55;6.70;99.90
4922;DHT22;16625;53.624;10.106;2023-02-23T06:02:24;7.80;99.90
4922;DHT22;16625;53.624;10.106;2023-02-23T06:04:52;7.10;99.90
4922;DHT22;16625;53.624;10.106;2023-02-23T06:07:18;6.50;99.90
4922;DHT22;16625;53.624;10.106;2023-02-23T06:09:45;6.80;99.90
4922;DHT22;16625;53.624;10.106;2023-02-23T06:12:13;6.70;99.90
4922;DHT22;16625;53.624;10.106;2023-02-23T06:14:39;6.80;99.90
4922;DHT22;16625;53.624;10.106;2023-02-23T06:17:06;6.90;99.90
4922;DHT22;16625;53.624;10.106;2023-02-23T06:19:43;7.20;99.90
4922;DHT22;16625;53.624;10.106;2023-02-23T06:22:10;7.00;99.90
4922;DHT22;16625;53.624;10.106;2023-02-23T06:24:37;7.30;99.90
4922;DHT22;16625;53.624;10.106;2023-02-23T06:27:04;6.90;99.90
4922;DHT22;16625;53.624;10.106;2023-02-23T06:29:31;6.90;99.90
4922;DHT22;16625;53.624;10.106;2023-02-23T06:31:58;7.70;99.90
4922;DHT22;16625;53.624;10.106;2023-02-23T06:34:25;7.10;99.90
4922;DHT22;16625;53.624;10.106;2023-02-23T06:36:54;6.80;99.90
4922;DHT22;16625;53.624;10.106;2023-02-23T06:39:21;6.90;99.90
4922;DHT22;16625;53.624;10.106;2023-02-23T06:41:48;7.20;99.90
4922;DHT22;16625;53.624;10.106;2023-02-23T06:44:15;7.10;99.90
4922;DHT22;16625;53.624;10.106;2023-02-23T06:46:42;8.20;99.90
4922;DHT22;16625;53.624;10.106;2023-02-23T06:49:10;7.10;99.90
4922;DHT22;16625;53.624;10.106;2023-02-23T06:51:37;7.10;99.90
4922;DHT22;16625;53.624;10.106;2023-02-23T06:54:06;7.10;99.90
4922;DHT22;16625;53.624;10.106;2023-02-23T06:56:32;7.50;99.90
4922;DHT22;16625;53.624;10.106;2023-02-23T06:58:59;7.20;99.90
4922;DHT22;16625;53.624;10.106;2023-02-23T07:01:26;7.00;99.90
4922;DHT22;16625;53.624;10.106;2023-02-23T07:03:54;7.10;99.90
4922;DHT22;16625;53.624;10.106;2023-02-23T07:06:21;7.40;99.90
4922;DHT22;16625;53.624;10.106;2023-02-23T07:08:48;7.30;99.90
4922;DHT22;16625;53.624;10.106;2023-02-23T07:11:16;7.60;99.90
4922;DHT22;16625;53.624;10.106;2023-02-23T07:13:44;8.50;99.90
4922;DHT22;16625;53.624;10.106;2023-02-23T07:16:11;7.50;99.90
4922;DHT22;16625;53.624;10.106;2023-02-23T07:18:39;7.30;99.90
4922;DHT22;16625;53.624;10.106;2023-02-23T07:21:06;7.50;99.90
4922;DHT22;16625;53.624;10.106;2023-02-23T07:23:33;7.70;99.90
4922;DHT22;16625;53.624;10.106;2023-02-23T07:26:00;7.70;99.90
4922;DHT22;16625;53.624;10.106;2023-02-23T07:28:28;7.30;99.90
4922;DHT22;16625;53.624;10.106;2023-02-23T07:30:56;7.40;99.90
4922;DHT22;16625;53.624;10.106;2023-02-23T07:33:23;7.70;99.90
4922;DHT22;16625;53.624;10.106;2023-02-23T07:35:50;8.00;99.90
4922;DHT22;16625;53.624;10.106;2023-02-23T07:38:17;7.70;99.90
4922;DHT22;16625;53.624;10.106;2023-02-23T07:40:44;7.40;99.90
4922;DHT22;16625;53.624;10.106;2023-02-23T07:43:11;7.40;99.90
4922;DHT22;16625;53.624;10.106;2023-02-23T07:45:39;7.30;99.90
4922;DHT22;16625;53.624;10.106;2023-02-23T07:48:08;7.90;99.90
4922;DHT22;16625;53.624;10.106;2023-02-23T07:50:34;7.80;99.90
4922;DHT22;16625;53.624;10.106;2023-02-23T07:53:01;7.80;99.90
4922;DHT22;16625;53.624;10.106;2023-02-23T07:55:28;7.70;99.90
4922;DHT22;16625;53.624;10.106;2023-02-23T07:57:56;7.50;99.90
4922;DHT22;16625;53.624;10.106;2023-02-23T08:00:24;7.90;99.90
4922;DHT22;16625;53.624;10.106;2023-02-23T08:02:55;7.50;99.90
4922;DHT22;16625;53.624;10.106;2023-02-23T08:05:21;7.30;99.90
4922;DHT22;16625;53.624;10.106;2023-02-23T08:07:50;7.60;99.90
4922;DHT22;16625;53.624;10.106;2023-02-23T08:10:17;7.50;99.90
4922;DHT22;16625;53.624;10.106;2023-02-23T08:12:44;8.20;99.90
4922;DHT22;16625;53.624;10.106;2023-02-23T08:15:11;8.40;99.90
4922;DHT22;16625;53.624;10.106;2023-02-23T08:17:38;7.50;99.90
4922;DHT22;16625;53.624;10.106;2023-02-23T08:20:08;7.50;99.90
4922;DHT22;16625;53.624;10.106;2023-02-23T08:22:35;7.50;99.90
4922;DHT22;16625;53.624;10.106;2023-02-23T08:25:03;7.70;99.90
4922;DHT22;16625;53.624;10.106;2023-02-23T08:27:32;7.40;99.90
4922;DHT22;16625;53.624;10.106;2023-02-23T08:29:59;7.90;99.90
4922;DHT22;16625;53.624;10.106;2023-02-23T08:32:28;7.70;99.90
4922;DHT22;16625;53.624;10.106;2023-02-23T08:34:55;7.50;99.90
4922;DHT22;16625;53.624;10.106;2023-02-23T08:37:26;7.70;99.90
4922;DHT22;16625;53.624;10.106;2023-02-23T08:39:53;8.80;99.90
4922;DHT22;16625;53.624;10.106;2023-02-23T08:42:20;7.40;99.90
4922;DHT22;16625;53.624;10.106;2023-02-23T08:44:47;7.50;99.90
4922;DHT22;16625;53.624;10.106;2023-02-23T08:47:14;7.50;99.90
4922;DHT22;16625;53.624;10.106;2023-02-23T08:49:42;7.50;99.90
4922;DHT22;16625;53.624;10.106;2023-02-23T08:52:09;7.90;99.90
4922;DHT22;16625;53.624;10.106;2023-02-23T08:54:37;7.60;99.90
4922;DHT22;16625;53.624;10.106;2023-02-23T08:57:04;7.70;99.90
4922;DHT22;16625;53.624;10.106;2023-02-23T08:59:31;7.90;99.90
4922;DHT22;16625;53.624;10.106;2023-02-23T09:01:58;7.60;99.90
4922;DHT22;16625;53.624;10.106;2023-02-23T09:04:25;7.90;99.90
4922;DHT22;16625;53.624;10.106;2023-02-23T09:06:52;8.00;99.90
4922;DHT22;16625;53.624;10.106;2023-02-23T09:09:19;7.70;99.90
4922;DHT22;16625;53.624;10.106;2023-02-23T09:11:50;7.70;99.90
4922;DHT22;16625;53.624;10.106;2023-02-23T09:14:17;7.80;99.90
4922;DHT22;16625;53.624;10.106;2023-02-23T09:16:43;9.00;99.90
4922;DHT22;16625;53.624;10.106;2023-02-23T09:19:12;8.00;99.90
4922;DHT22;16625;53.624;10.106;2023-02-23T09:21:39;7.70;99.90
4922;DHT22;16625;53.624;10.106;2023-02-23T09:24:06;8.10;99.90
4922;DHT22;16625;53.624;10.106;2023-02-23T09:26:33;8.10;99.90
4922;DHT22;16625;53.624;10.106;2023-02-23T09:29:06;8.60;99.90
4922;DHT22;16625;53.624;10.106;2023-02-23T09:31:34;8.10;99.90
4922;DHT22;16625;53.624;10.106;2023-02-23T09:34:01;7.70;99.90
4922;DHT22;16625;53.624;10.106;2023-02-23T09:36:29;7.40;99.90
4922;DHT22;16625;53.624;10.106;2023-02-23T09:38:57;8.10;99.90
4922;DHT22;16625;53.624;10.106;2023-02-23T09:41:57;8.10;99.90
4922;DHT22;16625;53.624;10.106;2023-02-23T09:44:40;7.70;99.90
4922;DHT22;16625;53.624;10.106;2023-02-23T09:47:29;8.70;99.90
4922;DHT22;16625;53.624;10.106;2023-02-23T09:49:58;7.70;99.90
4922;DHT22;16625;53.624;10.106;2023-02-23T09:52:35;8.00;99.90
4922;DHT22;16625;53.624;10.106;2023-02-23T09:55:04;7.60;99.90
4922;DHT22;16625;53.624;10.106;2023-02-23T09:57:36;7.70;99.90
4922;DHT22;16625;53.624;10.106;2023-02-23T10:00:14;7.80;99.90
4922;DHT22;16625;53.624;10.106;2023-02-23T10:02:55;7.50;99.90
4922;DHT22;16625;53.624;10.106;2023-02-23T10:05:44;7.60;99.90
4922;DHT22;16625;53.624;10.106;2023-02-23T10:08:19;7.50;99.90
4922;DHT22;16625;53.624;10.106;2023-02-23T10:10:51;7.30;99.90
4922;DHT22;16625;53.624;10.106;2023-02-23T10:13:27;7.30;99.90
4922;DHT22;16625;53.624;10.106;2023-02-23T10:16:01;7.40;99.90
4922;DHT22;16625;53.624;10.106;2023-02-23T10:18:35;7.30;99.90
4922;DHT22;16625;53.624;10.106;2023-02-23T10:21:06;7.40;99.90
4922;DHT22;16625;53.624;10.106;2023-02-23T10:23:42;7.30;99.90
4922;DHT22;16625;53.624;10.106;2023-02-23T10:26:15;7.40;99.90
4922;DHT22;16625;53.624;10.106;2023-02-23T10:28:42;7.60;99.90
4922;DHT22;16625;53.624;10.106;2023-02-23T10:31:22;7.60;99.90
4922;DHT22;16625;53.624;10.106;2023-02-23T10:33:52;7.80;99.90
4922;DHT22;16625;53.624;10.106;2023-02-23T10:36:32;7.80;99.90
4922;DHT22;16625;53.624;10.106;2023-02-23T10:39:00;7.70;99.90
4922;DHT22;16625;53.624;10.106;2023-02-23T10:41:27;7.70;99.90
4922;DHT22;16625;53.624;10.106;2023-02-23T10:43:54;7.70;99.90
4922;DHT22;16625;53.624;10.106;2023-02-23T10:46:23;7.80;99.90
4922;DHT22;16625;53.624;10.106;2023-02-23T10:48:53;7.60;99.90
4922;DHT22;16625;53.624;10.106;2023-02-23T10:51:26;7.70;99.90
4922;DHT22;16625;53.624;10.106;2023-02-23T10:53:54;7.70;99.90
4922;DHT22;16625;53.624;10.106;2023-02-23T10:56:22;7.80;99.90
4922;DHT22;16625;53.624;10.106;2023-02-23T10:58:51;7.80;99.90
4922;DHT22;16625;53.624;10.106;2023-02-23T11:01:32;7.60;99.90
4922;DHT22;16625;53.624;10.106;2023-02-23T11:04:13;7.40;99.90
4922;DHT22;16625;53.624;10.106;2023-02-23T11:06:43;7.40;99.90
4922;DHT22;16625;53.624;10.106;2023-02-23T11:09:22;7.40;99.90
4922;DHT22;16625;53.624;10.106;2023-02-23T11:11:56;7.50;99.90
4922;DHT22;16625;53.624;10.106;2023-02-23T11:14:24;7.50;99.90
4922;DHT22;16625;53.624;10.106;2023-02-23T11:16:52;7.50;99.90
4922;DHT22;16625;53.624;10.106;2023-02-23T11:19:24;7.70;99.90
4922;DHT22;16625;53.624;10.106;2023-02-23T11:21:53;7.90;99.90
4922;DHT22;16625;53.624;10.106;2023-02-23T11:24:23;8.10;99.90
4922;DHT22;16625;53.624;10.106;2023-02-23T11:26:53;8.30;99.90
4922;DHT22;16625;53.624;10.106;2023-02-23T11:29:26;8.60;99.90
4922;DHT22;16625;53.624;10.106;2023-02-23T11:31:58;8.50;99.90
4922;DHT22;16625;53.624;10.106;2023-02-23T11:34:31;8.60;99.90
4922;DHT22;16625;53.624;10.106;2023-02-23T11:37:03;8.70;99.90
4922;DHT22;16625;53.624;10.106;2023-02-23T11:39:30;8.70;99.90
4922;DHT22;16625;53.624;10.106;2023-02-23T11:42:16;8.50;99.90
4922;DHT22;16625;53.624;10.106;2023-02-23T11:44:49;8.60;99.90
4922;DHT22;16625;53.624;10.106;2023-02-23T11:47:18;8.30;99.90
4922;DHT22;16625;53.624;10.106;2023-02-23T11:49:47;8.30;99.90
4922;DHT22;16625;53.624;10.106;2023-02-23T11:52:17;8.40;99.90
4922;DHT22;16625;53.624;10.106;2023-02-23T11:54:51;8.20;99.90
4922;DHT22;16625;53.624;10.106;2023-02-23T11:57:20;8.40;99.90
4922;DHT22;16625;53.624;10.106;2023-02-23T11:59:48;8.60;99.90
4922;DHT22;16625;53.624;10.106;2023-02-23T12:02:21;8.60;99.90
4922;DHT22;16625;53.624;10.106;2023-02-23T12:04:51;8.70;99.90
4922;DHT22;16625;53.624;10.106;2023-02-23T12:07:35;9.00;99.90
4922;DHT22;16625;53.624;10.106;2023-02-23T12:10:14;8.90;99.90
4922;DHT22;16625;53.624;10.106;2023-02-23T12:12:57;9.00;99.90
4922;DHT22;16625;53.624;10.106;2023-02-23T12:15:33;8.90;99.90
4922;DHT22;16625;53.624;10.106;2023-02-23T12:18:07;8.70;99.90
4922;DHT22;16625;53.624;10.106;2023-02-23T12:20:40;8.50;99.90
4922;DHT22;16625;53.624;10.106;2023-02-23T12:23:12;8.50;99.90
4922;DHT22;16625;53.624;10.106;2023-02-23T12:25:45;8.40;99.90
4922;DHT22;16625;53.624;10.106;2023-02-23T12:28:18;8.30;99.90
4922;DHT22;16625;53.624;10.106;2023-02-23T12:30:49;8.10;99.90
4922;DHT22;16625;53.624;10.106;2023-02-23T12:33:20;8.10;99.90
4922;DHT22;16625;53.624;10.106;2023-02-23T12:35:57;8.10;99.90
4922;DHT22;16625;53.624;10.106;2023-02-23T12:38:37;8.40;99.90
4922;DHT22;16625;53.624;10.106;2023-02-23T12:41:10;8.30;99.90
4922;DHT22;16625;53.624;10.106;2023-02-23T12:43:41;8.30;99.90
4922;DHT22;16625;53.624;10.106;2023-02-23T12:46:16;8.50;99.90
4922;DHT22;16625;53.624;10.106;2023-02-23T12:48:49;8.50;99.90
4922;DHT22;16625;53.624;10.106;2023-02-23T12:51:23;8.40;99.90
4922;DHT22;16625;53.624;10.106;2023-02-23T12:53:54;8.40;99.90
4922;DHT22;16625;53.624;10.106;2023-02-23T12:56:31;8.50;99.90
4922;DHT22;16625;53.624;10.106;2023-02-23T12:59:12;8.40;99.90
4922;DHT22;16625;53.624;10.106;2023-02-23T13:01:43;8.30;99.90
4922;DHT22;16625;53.624;10.106;2023-02-23T13:04:38;8.20;99.90
4922;DHT22;16625;53.624;10.106;2023-02-23T13:07:13;8.30;99.90
4922;DHT22;16625;53.624;10.106;2023-02-23T13:09:54;8.40;99.90
4922;DHT22;16625;53.624;10.106;2023-02-23T13:12:39;8.30;99.90
4922;DHT22;16625;53.624;10.106;2023-02-23T13:15:17;8.30;99.90
4922;DHT22;16625;53.624;10.106;2023-02-23T13:17:52;8.30;99.90
4922;DHT22;16625;53.624;10.106;2023-02-23T13:20:25;8.40;99.90
4922;DHT22;16625;53.624;10.106;2023-02-23T13:22:59;8.20;99.90
4922;DHT22;16625;53.624;10.106;2023-02-23T13:25:41;8.20;99.90
4922;DHT22;16625;53.624;10.106;2023-02-23T13:28:16;8.10;99.90
4922;DHT22;16625;53.624;10.106;2023-02-23T13:30:44;8.10;99.90
4922;DHT22;16625;53.624;10.106;2023-02-23T13:33:19;8.10;99.90
4922;DHT22;16625;53.624;10.106;2023-02-23T13:35:49;8.10;99.90
4922;DHT22;16625;53.624;10.106;2023-02-23T13:38:21;8.20;99.90
4922;DHT22;16625;53.624;10.106;2023-02-23T13:41:08;8.10;99.90
4922;DHT22;16625;53.624;10.106;2023-02-23T13:43:43;8.20;99.90
4922;DHT22;16625;53.624;10.106;2023-02-23T13:46:27;8.20;99.90
4922;DHT22;16625;53.624;10.106;2023-02-23T13:49:01;8.10;99.90
4922;DHT22;16625;53.624;10.106;2023-02-23T13:51:36;8.10;99.90
4922;DHT22;16625;53.624;10.106;2023-02-23T13:54:23;8.20;99.90
4922;DHT22;16625;53.624;10.106;2023-02-23T13:57:11;8.40;99.90
4922;DHT22;16625;53.624;10.106;2023-02-23T13:59:45;8.30;99.90
4922;DHT22;16625;53.624;10.106;2023-02-23T14:02:37;8.20;99.90
4922;DHT22;16625;53.624;10.106;2023-02-23T14:05:19;8.20;1.00
4922;DHT22;16625;53.624;10.106;2023-02-23T14:07:51;8.30;1.00
4922;DHT22;16625;53.624;10.106;2023-02-23T14:10:36;8.30;1.00
4922;DHT22;16625;53.624;10.106;2023-02-23T14:13:25;8.40;1.00
4922;DHT22;16625;53.624;10.106;2023-02-23T14:16:16;8.30;1.00
4922;DHT22;16625;53.624;10.106;2023-02-23T14:19:10;8.20;1.00
4922;DHT22;16625;53.624;10.106;2023-02-23T14:21:49;8.10;1.00
4922;DHT22;16625;53.624;10.106;2023-02-23T14:24:20;8.20;1.00
4922;DHT22;16625;53.624;10.106;2023-02-23T14:27:21;8.20;1.00
4922;DHT22;16625;53.624;10.106;2023-02-23T14:30:13;8.10;72.00
4922;DHT22;16625;53.624;10.106;2023-02-23T14:32:43;8.10;99.90
4922;DHT22;16625;53.624;10.106;2023-02-23T14:35:34;8.10;93.00
4922;DHT22;16625;53.624;10.106;2023-02-23T14:38:10;8.10;99.90
4922;DHT22;16625;53.624;10.106;2023-02-23T14:40:39;8.10;99.90
4922;DHT22;16625;53.624;10.106;2023-02-23T14:43:30;8.10;99.90
4922;DHT22;16625;53.624;10.106;2023-02-23T14:46:02;8.20;91.70
4922;DHT22;16625;53.624;10.106;2023-02-23T14:48:32;8.10;88.60
4922;DHT22;16625;53.624;10.106;2023-02-23T14:51:12;8.30;1.00
4922;DHT22;16625;53.624;10.106;2023-02-23T14:53:41;8.30;1.00
4922;DHT22;16625;53.624;10.106;2023-02-23T14:56:17;8.20;1.00
4922;DHT22;16625;53.624;10.106;2023-02-23T14:58:49;8.20;1.00
4922;DHT22;16625;53.624;10.106;2023-02-23T15:01:36;8.20;1.00
4922;DHT22;16625;53.624;10.106;2023-02-23T15:04:06;8.30;1.00
4922;DHT22;16625;53.624;10.106;2023-02-23T15:06:36;8.40;99.90
4922;DHT22;16625;53.624;10.106;2023-02-23T15:09:04;8.30;99.90
4922;DHT22;16625;53.624;10.106;2023-02-23T15:11:31;8.40;99.90
4922;DHT22;16625;53.624;10.106;2023-02-23T15:13:58;8.30;99.90
4922;DHT22;16625;53.624;10.106;2023-02-23T15:16:29;8.40;99.90
4922;DHT22;16625;53.624;10.106;2023-02-23T15:19:01;8.50;99.90
4922;DHT22;16625;53.624;10.106;2023-02-23T15:21:29;8.40;1.00
4922;DHT22;16625;53.624;10.106;2023-02-23T15:24:05;8.30;99.90
4922;DHT22;16625;53.624;10.106;2023-02-23T15:26:38;8.40;52.10
4922;DHT22;16625;53.624;10.106;2023-02-23T15:29:12;8.30;99.90
4922;DHT22;16625;53.624;10.106;2023-02-23T15:31:40;8.40;99.90
4922;DHT22;16625;53.624;10.106;2023-02-23T15:34:16;8.30;99.90
4922;DHT22;16625;53.624;10.106;2023-02-23T15:36:47;8.20;99.90
4922;DHT22;16625;53.624;10.106;2023-02-23T15:39:17;8.10;1.00
4922;DHT22;16625;53.624;10.106;2023-02-23T15:41:46;8.00;1.00
4922;DHT22;16625;53.624;10.106;2023-02-23T15:44:19;8.00;1.00
4922;DHT22;16625;53.624;10.106;2023-02-23T15:46:50;8.00;29.50
4922;DHT22;16625;53.624;10.106;2023-02-23T15:49:21;8.00;41.90
4922;DHT22;16625;53.624;10.106;2023-02-23T15:51:55;8.00;92.80
4922;DHT22;16625;53.624;10.106;2023-02-23T15:54:27;7.90;99.90
4922;DHT22;16625;53.624;10.106;2023-02-23T15:56:56;7.90;99.90
4922;DHT22;16625;53.624;10.106;2023-02-23T15:59:27;7.80;99.90
4922;DHT22;16625;53.624;10.106;2023-02-23T16:01:57;7.80;99.90
4922;DHT22;16625;53.624;10.106;2023-02-23T16:04:30;7.90;99.90
4922;DHT22;16625;53.624;10.106;2023-02-23T16:07:14;7.70;99.90
4922;DHT22;16625;53.624;10.106;2023-02-23T16:09:48;7.70;99.90
4922;DHT22;16625;53.624;10.106;2023-02-23T16:12:18;7.50;99.90
4922;DHT22;16625;53.624;10.106;2023-02-23T16:14:50;7.70;99.90
4922;DHT22;16625;53.624;10.106;2023-02-23T16:17:23;7.50;99.90
4922;DHT22;16625;53.624;10.106;2023-02-23T16:19:54;7.50;99.90
4922;DHT22;16625;53.624;10.106;2023-02-23T16:22:24;7.50;99.90
4922;DHT22;16625;53.624;10.106;2023-02-23T16:24:58;7.50;99.90
4922;DHT22;16625;53.624;10.106;2023-02-23T16:27:28;7.50;99.90